| Date Time MST |
Temp °F |
RH % |
DewPt °F |
Wind mph |
Dir ° |
Gust mph |
Dir ° |
Press in Hg |
Solar W/m^2 |
Prec in |
|---|---|---|---|---|---|---|---|---|---|---|
| 2026-05-04 03:25 | 44.1 | 50.6 | 27.0 | 4.6 | 310 | 5.2 | 315 | 24.695 | 0.2 | 0.00 |
| 2026-05-04 03:20 | 45.2 | 49.1 | 27.2 | 3.6 | 321 | 4.4 | 320 | 24.695 | 0.2 | 0.00 |
| 2026-05-04 03:15 | 46.5 | 46.7 | 27.2 | 2.6 | 320 | 3.1 | 301 | 24.696 | 0.2 | 0.00 |
| 2026-05-04 03:10 | 47.9 | 44.6 | 27.4 | 2.7 | 309 | 3.2 | 294 | 24.696 | 0.2 | 0.00 |
| 2026-05-04 03:05 | 47.8 | 41.6 | 25.6 | 2.8 | 304 | 3.6 | 311 | 24.696 | 0.1 | 0.00 |
| 2026-05-04 03:00 | 46.4 | 45.0 | 26.2 | 3.9 | 333 | 5.2 | 298 | 24.698 | 0.1 | 0.00 |
| 2026-05-04 02:55 | 45.4 | 51.2 | 28.4 | 5.0 | 314 | 6.3 | 271 | 24.698 | 0.1 | 0.00 |
| 2026-05-04 02:50 | 46.0 | 56.6 | 31.4 | 4.1 | 288 | 5.1 | 288 | 24.698 | 0.2 | 0.00 |
| 2026-05-04 02:45 | 46.9 | 48.2 | 28.3 | 3.2 | 253 | 4.2 | 253 | 24.698 | 0.1 | 0.00 |
| 2026-05-04 02:40 | 47.5 | 47.5 | 28.5 | 4.3 | 233 | 5.3 | 252 | 24.699 | 0.2 | 0.00 |
| 2026-05-04 02:35 | 47.4 | 47.5 | 28.5 | 5.3 | 257 | 7.4 | 253 | 24.699 | 0.2 | 0.00 |
| 2026-05-04 02:30 | 46.5 | 49.4 | 28.5 | 4.3 | 258 | 7.1 | 251 | 24.700 | 0.2 | 0.00 |
| 2026-05-04 02:25 | 46.7 | 50.9 | 29.5 | 2.4 | 239 | 3.1 | 239 | 24.701 | 0.2 | 0.00 |
| 2026-05-04 02:20 | 47.2 | 43.4 | 26.1 | 1.8 | 258 | 2.4 | 251 | 24.703 | 0.2 | 0.00 |
| 2026-05-04 02:15 | 47.0 | 42.5 | 25.4 | 2.8 | 319 | 3.6 | 336 | 24.703 | 0.1 | 0.00 |
| 2026-05-04 02:10 | 47.4 | 44.2 | 26.7 | 1.6 | 357 | 2.7 | 357 | 24.705 | 0.1 | 0.00 |
| 2026-05-04 02:05 | 47.6 | 42.5 | 26.0 | 2.4 | 324 | 3.7 | 286 | 24.706 | 0.1 | 0.00 |
| 2026-05-04 02:00 | 47.5 | 44.0 | 26.7 | 3.7 | 258 | 4.7 | 321 | 24.706 | 0.2 | 0.00 |
| 2026-05-04 01:55 | 48.5 | 42.5 | 26.7 | 2.3 | 332 | 3.6 | 332 | 24.708 | 0.2 | 0.00 |
| 2026-05-04 01:50 | 47.6 | 41.9 | 25.6 | 2.1 | 331 | 3.2 | 299 | 24.710 | 0.1 | 0.00 |
| 2026-05-04 01:45 | 46.4 | 46.1 | 26.9 | 3.4 | 297 | 4.6 | 318 | 24.710 | 0.1 | 0.00 |
| 2026-05-04 01:40 | 46.2 | 46.3 | 26.7 | 2.0 | 319 | 3.2 | 317 | 24.710 | 0.1 | 0.00 |
| 2026-05-04 01:35 | 45.9 | 48.2 | 27.4 | 0.7 | 299 | 1.4 | 307 | 24.713 | 0.2 | 0.00 |
| 2026-05-04 01:30 | 46.1 | 47.7 | 27.4 | 0.8 | 264 | 1.1 | 254 | 24.714 | 0.1 | 0.00 |
| 2026-05-04 01:25 | 46.4 | 47.4 | 27.4 | 2.3 | 309 | 3.8 | 330 | 24.716 | 0.1 | 0.00 |
| 2026-05-04 01:20 | 47.6 | 45.8 | 27.7 | 3.5 | 337 | 3.9 | 4 | 24.717 | 0.1 | 0.00 |
| 2026-05-04 01:15 | 49.5 | 41.9 | 27.3 | 3.8 | 9 | 4.7 | 330 | 24.719 | 0.2 | 0.00 |
| 2026-05-04 01:10 | 48.4 | 39.5 | 24.9 | 2.6 | 338 | 4.0 | 337 | 24.721 | 0.2 | 0.00 |
| 2026-05-04 01:05 | 48.3 | 43.1 | 26.9 | 1.5 | 338 | 2.5 | 293 | 24.724 | 0.2 | 0.00 |
| 2026-05-04 01:00 | 48.9 | 41.3 | 26.4 | 1.7 | 327 | 3.3 | 338 | 24.724 | 0.2 | 0.00 |
| Date Time MST |
Temp °C |
RH % |
DewPt °C |
Wind m/s |
Dir ° |
Gust m/s |
Dir ° |
Press hPa |
Solar W/m^2 |
Prec mm |
|---|---|---|---|---|---|---|---|---|---|---|
| 2026-05-04 03:25 | 6.8 | 50.6 | -2.8 | 2.1 | 310 | 2.3 | 315 | 836.27 | 0.2 | 0.00 |
| 2026-05-04 03:20 | 7.3 | 49.1 | -2.7 | 1.6 | 321 | 2.0 | 320 | 836.28 | 0.2 | 0.00 |
| 2026-05-04 03:15 | 8.0 | 46.7 | -2.7 | 1.2 | 320 | 1.4 | 301 | 836.29 | 0.2 | 0.00 |
| 2026-05-04 03:10 | 8.8 | 44.6 | -2.6 | 1.2 | 309 | 1.4 | 294 | 836.30 | 0.2 | 0.00 |
| 2026-05-04 03:05 | 8.8 | 41.6 | -3.5 | 1.3 | 304 | 1.6 | 311 | 836.30 | 0.1 | 0.00 |
| 2026-05-04 03:00 | 8.0 | 45.0 | -3.2 | 1.8 | 333 | 2.3 | 298 | 836.37 | 0.1 | 0.00 |
| 2026-05-04 02:55 | 7.4 | 51.2 | -2.0 | 2.2 | 314 | 2.8 | 271 | 836.37 | 0.1 | 0.00 |
| 2026-05-04 02:50 | 7.8 | 56.6 | -0.3 | 1.8 | 288 | 2.3 | 288 | 836.36 | 0.2 | 0.00 |
| 2026-05-04 02:45 | 8.3 | 48.2 | -2.0 | 1.4 | 253 | 1.9 | 253 | 836.38 | 0.1 | 0.00 |
| 2026-05-04 02:40 | 8.6 | 47.5 | -1.9 | 1.9 | 233 | 2.4 | 252 | 836.41 | 0.2 | 0.00 |
| 2026-05-04 02:35 | 8.6 | 47.5 | -2.0 | 2.4 | 257 | 3.3 | 253 | 836.39 | 0.2 | 0.00 |
| 2026-05-04 02:30 | 8.0 | 49.4 | -1.9 | 1.9 | 258 | 3.2 | 251 | 836.42 | 0.2 | 0.00 |
| 2026-05-04 02:25 | 8.2 | 50.9 | -1.4 | 1.1 | 239 | 1.4 | 239 | 836.48 | 0.2 | 0.00 |
| 2026-05-04 02:20 | 8.4 | 43.4 | -3.3 | 0.8 | 258 | 1.1 | 251 | 836.53 | 0.2 | 0.00 |
| 2026-05-04 02:15 | 8.3 | 42.5 | -3.7 | 1.2 | 319 | 1.6 | 336 | 836.55 | 0.1 | 0.00 |
| 2026-05-04 02:10 | 8.6 | 44.2 | -2.9 | 0.7 | 357 | 1.2 | 357 | 836.59 | 0.1 | 0.00 |
| 2026-05-04 02:05 | 8.7 | 42.5 | -3.4 | 1.1 | 324 | 1.6 | 286 | 836.64 | 0.1 | 0.00 |
| 2026-05-04 02:00 | 8.6 | 44.0 | -3.0 | 1.7 | 258 | 2.1 | 321 | 836.65 | 0.2 | 0.00 |
| 2026-05-04 01:55 | 9.1 | 42.5 | -2.9 | 1.0 | 332 | 1.6 | 332 | 836.72 | 0.2 | 0.00 |
| 2026-05-04 01:50 | 8.7 | 41.9 | -3.6 | 0.9 | 331 | 1.4 | 299 | 836.77 | 0.1 | 0.00 |
| 2026-05-04 01:45 | 8.0 | 46.1 | -2.9 | 1.5 | 297 | 2.1 | 318 | 836.78 | 0.1 | 0.00 |
| 2026-05-04 01:40 | 7.9 | 46.3 | -2.9 | 0.9 | 319 | 1.4 | 317 | 836.79 | 0.1 | 0.00 |
| 2026-05-04 01:35 | 7.7 | 48.2 | -2.5 | 0.3 | 299 | 0.6 | 307 | 836.87 | 0.2 | 0.00 |
| 2026-05-04 01:30 | 7.8 | 47.7 | -2.6 | 0.3 | 264 | 0.5 | 254 | 836.92 | 0.1 | 0.00 |
| 2026-05-04 01:25 | 8.0 | 47.4 | -2.5 | 1.0 | 309 | 1.7 | 330 | 836.99 | 0.1 | 0.00 |
| 2026-05-04 01:20 | 8.7 | 45.8 | -2.4 | 1.6 | 337 | 1.8 | 4 | 837.03 | 0.1 | 0.00 |
| 2026-05-04 01:15 | 9.7 | 41.9 | -2.6 | 1.7 | 9 | 2.1 | 330 | 837.07 | 0.2 | 0.00 |
| 2026-05-04 01:10 | 9.1 | 39.5 | -3.9 | 1.2 | 338 | 1.8 | 337 | 837.14 | 0.2 | 0.00 |
| 2026-05-04 01:05 | 9.1 | 43.1 | -2.9 | 0.7 | 338 | 1.1 | 293 | 837.24 | 0.2 | 0.00 |
| 2026-05-04 01:00 | 9.4 | 41.3 | -3.1 | 0.8 | 327 | 1.5 | 338 | 837.25 | 0.2 | 0.00 |